sensor_id;sensor_type;location;lat;lon;timestamp;P1;durP1;ratioP1;P2;durP2;ratioP2
49578;SDS011;35483;50.828;3.228;2023-02-26T00:00:30;11.52;;;6.28;;
49578;SDS011;35483;50.828;3.228;2023-02-26T00:02:55;7.57;;;6.00;;
49578;SDS011;35483;50.828;3.228;2023-02-26T00:05:21;11.27;;;5.80;;
49578;SDS011;35483;50.828;3.228;2023-02-26T00:07:47;10.15;;;6.20;;
49578;SDS011;35483;50.828;3.228;2023-02-26T00:10:13;8.15;;;6.00;;
49578;SDS011;35483;50.828;3.228;2023-02-26T00:12:40;9.13;;;6.38;;
49578;SDS011;35483;50.828;3.228;2023-02-26T00:15:07;8.93;;;5.22;;
49578;SDS011;35483;50.828;3.228;2023-02-26T00:20:41;11.30;;;5.57;;
49578;SDS011;35483;50.828;3.228;2023-02-26T00:23:10;9.80;;;6.30;;
49578;SDS011;35483;50.828;3.228;2023-02-26T00:25:38;8.93;;;5.93;;
49578;SDS011;35483;50.828;3.228;2023-02-26T00:28:05;9.88;;;5.80;;
49578;SDS011;35483;50.828;3.228;2023-02-26T00:30:32;9.50;;;5.85;;
49578;SDS011;35483;50.828;3.228;2023-02-26T00:32:58;8.52;;;5.60;;
49578;SDS011;35483;50.828;3.228;2023-02-26T00:35:24;8.02;;;4.90;;
49578;SDS011;35483;50.828;3.228;2023-02-26T00:37:58;9.00;;;5.60;;
49578;SDS011;35483;50.828;3.228;2023-02-26T00:42:53;7.93;;;4.25;;
49578;SDS011;35483;50.828;3.228;2023-02-26T00:45:20;9.60;;;5.10;;
49578;SDS011;35483;50.828;3.228;2023-02-26T00:47:48;6.82;;;4.95;;
49578;SDS011;35483;50.828;3.228;2023-02-26T00:50:23;8.73;;;4.40;;
49578;SDS011;35483;50.828;3.228;2023-02-26T00:53:07;8.55;;;4.55;;
49578;SDS011;35483;50.828;3.228;2023-02-26T00:55:44;7.78;;;4.28;;
49578;SDS011;35483;50.828;3.228;2023-02-26T00:58:10;7.68;;;4.57;;
49578;SDS011;35483;50.828;3.228;2023-02-26T01:00:36;8.30;;;3.80;;
49578;SDS011;35483;50.828;3.228;2023-02-26T01:03:01;12.88;;;4.90;;
49578;SDS011;35483;50.828;3.228;2023-02-26T01:05:28;8.98;;;4.00;;
49578;SDS011;35483;50.828;3.228;2023-02-26T01:08:01;8.52;;;4.15;;
49578;SDS011;35483;50.828;3.228;2023-02-26T01:10:32;7.90;;;4.30;;
49578;SDS011;35483;50.828;3.228;2023-02-26T01:12:59;6.28;;;4.10;;
49578;SDS011;35483;50.828;3.228;2023-02-26T01:15:25;7.13;;;4.20;;
49578;SDS011;35483;50.828;3.228;2023-02-26T01:17:56;4.75;;;3.63;;
49578;SDS011;35483;50.828;3.228;2023-02-26T01:20:33;10.60;;;4.35;;
49578;SDS011;35483;50.828;3.228;2023-02-26T01:23:06;7.28;;;3.80;;
49578;SDS011;35483;50.828;3.228;2023-02-26T01:30:37;5.47;;;3.78;;
49578;SDS011;35483;50.828;3.228;2023-02-26T01:33:21;8.00;;;3.58;;
49578;SDS011;35483;50.828;3.228;2023-02-26T01:36:09;6.93;;;3.47;;
49578;SDS011;35483;50.828;3.228;2023-02-26T01:41:31;7.15;;;3.50;;
49578;SDS011;35483;50.828;3.228;2023-02-26T01:47:03;5.93;;;3.40;;
49578;SDS011;35483;50.828;3.228;2023-02-26T01:49:32;5.88;;;3.45;;
49578;SDS011;35483;50.828;3.228;2023-02-26T01:51:59;8.38;;;3.33;;
49578;SDS011;35483;50.828;3.228;2023-02-26T01:54:35;6.00;;;3.67;;
49578;SDS011;35483;50.828;3.228;2023-02-26T01:59:41;5.00;;;3.40;;
49578;SDS011;35483;50.828;3.228;2023-02-26T02:02:11;4.68;;;3.00;;
49578;SDS011;35483;50.828;3.228;2023-02-26T02:04:40;6.72;;;3.33;;
49578;SDS011;35483;50.828;3.228;2023-02-26T02:07:08;6.28;;;2.95;;
49578;SDS011;35483;50.828;3.228;2023-02-26T02:09:35;6.63;;;2.88;;
49578;SDS011;35483;50.828;3.228;2023-02-26T02:17:49;7.70;;;3.20;;
49578;SDS011;35483;50.828;3.228;2023-02-26T02:23:38;7.50;;;3.53;;
49578;SDS011;35483;50.828;3.228;2023-02-26T02:31:42;4.60;;;2.30;;
49578;SDS011;35483;50.828;3.228;2023-02-26T02:42:02;4.97;;;2.50;;
49578;SDS011;35483;50.828;3.228;2023-02-26T02:47:01;7.40;;;2.80;;
49578;SDS011;35483;50.828;3.228;2023-02-26T02:49:34;6.40;;;2.67;;
49578;SDS011;35483;50.828;3.228;2023-02-26T02:52:08;4.43;;;2.88;;
49578;SDS011;35483;50.828;3.228;2023-02-26T02:57:29;6.65;;;2.67;;
49578;SDS011;35483;50.828;3.228;2023-02-26T03:05:09;6.22;;;2.42;;
49578;SDS011;35483;50.828;3.228;2023-02-26T03:07:39;5.53;;;2.33;;
49578;SDS011;35483;50.828;3.228;2023-02-26T03:10:11;4.53;;;2.50;;
49578;SDS011;35483;50.828;3.228;2023-02-26T03:12:37;5.18;;;2.20;;
49578;SDS011;35483;50.828;3.228;2023-02-26T03:15:02;3.00;;;2.20;;
49578;SDS011;35483;50.828;3.228;2023-02-26T03:20:18;3.92;;;1.90;;
49578;SDS011;35483;50.828;3.228;2023-02-26T03:23:03;5.13;;;2.22;;
49578;SDS011;35483;50.828;3.228;2023-02-26T03:25:43;5.07;;;2.10;;
49578;SDS011;35483;50.828;3.228;2023-02-26T03:28:30;4.18;;;2.22;;
49578;SDS011;35483;50.828;3.228;2023-02-26T03:36:45;11.70;;;2.80;;
49578;SDS011;35483;50.828;3.228;2023-02-26T03:39:18;6.25;;;2.50;;
49578;SDS011;35483;50.828;3.228;2023-02-26T03:42:03;5.97;;;2.58;;
49578;SDS011;35483;50.828;3.228;2023-02-26T03:44:36;2.75;;;1.95;;
49578;SDS011;35483;50.828;3.228;2023-02-26T03:47:11;5.18;;;2.42;;
49578;SDS011;35483;50.828;3.228;2023-02-26T03:49:41;7.95;;;2.55;;
49578;SDS011;35483;50.828;3.228;2023-02-26T03:52:13;4.93;;;2.00;;
49578;SDS011;35483;50.828;3.228;2023-02-26T03:54:41;5.38;;;2.03;;
49578;SDS011;35483;50.828;3.228;2023-02-26T03:57:11;4.97;;;2.40;;
49578;SDS011;35483;50.828;3.228;2023-02-26T03:59:37;3.25;;;1.90;;
49578;SDS011;35483;50.828;3.228;2023-02-26T04:02:25;4.85;;;1.80;;
49578;SDS011;35483;50.828;3.228;2023-02-26T04:04:53;5.13;;;2.17;;
49578;SDS011;35483;50.828;3.228;2023-02-26T04:07:21;5.63;;;2.30;;
49578;SDS011;35483;50.828;3.228;2023-02-26T04:09:48;3.42;;;2.00;;
49578;SDS011;35483;50.828;3.228;2023-02-26T04:12:19;3.97;;;2.45;;
49578;SDS011;35483;50.828;3.228;2023-02-26T04:14:46;5.60;;;2.03;;
49578;SDS011;35483;50.828;3.228;2023-02-26T04:17:14;6.72;;;2.40;;
49578;SDS011;35483;50.828;3.228;2023-02-26T04:19:39;6.03;;;2.47;;
49578;SDS011;35483;50.828;3.228;2023-02-26T04:22:05;8.60;;;2.42;;
49578;SDS011;35483;50.828;3.228;2023-02-26T04:24:31;6.43;;;2.20;;
49578;SDS011;35483;50.828;3.228;2023-02-26T04:26:56;4.00;;;2.17;;
49578;SDS011;35483;50.828;3.228;2023-02-26T04:29:22;5.85;;;2.25;;
49578;SDS011;35483;50.828;3.228;2023-02-26T04:31:48;4.38;;;2.30;;
49578;SDS011;35483;50.828;3.228;2023-02-26T04:34:13;5.40;;;1.92;;
49578;SDS011;35483;50.828;3.228;2023-02-26T04:36:39;5.97;;;2.15;;
49578;SDS011;35483;50.828;3.228;2023-02-26T04:39:05;7.22;;;2.28;;
49578;SDS011;35483;50.828;3.228;2023-02-26T04:41:31;4.38;;;1.92;;
49578;SDS011;35483;50.828;3.228;2023-02-26T04:43:56;3.97;;;1.98;;
49578;SDS011;35483;50.828;3.228;2023-02-26T04:46:22;4.00;;;2.05;;
49578;SDS011;35483;50.828;3.228;2023-02-26T04:48:48;4.05;;;2.40;;
49578;SDS011;35483;50.828;3.228;2023-02-26T04:51:13;3.47;;;2.30;;
49578;SDS011;35483;50.828;3.228;2023-02-26T04:53:39;9.25;;;2.38;;
49578;SDS011;35483;50.828;3.228;2023-02-26T04:56:05;5.20;;;2.40;;
49578;SDS011;35483;50.828;3.228;2023-02-26T04:58:31;4.72;;;2.45;;
49578;SDS011;35483;50.828;3.228;2023-02-26T05:00:57;6.25;;;2.25;;
49578;SDS011;35483;50.828;3.228;2023-02-26T05:03:23;5.10;;;2.45;;
49578;SDS011;35483;50.828;3.228;2023-02-26T05:05:49;11.48;;;3.25;;
49578;SDS011;35483;50.828;3.228;2023-02-26T05:08:14;5.82;;;2.90;;
49578;SDS011;35483;50.828;3.228;2023-02-26T05:10:40;4.85;;;2.20;;
49578;SDS011;35483;50.828;3.228;2023-02-26T05:13:06;6.20;;;2.50;;
49578;SDS011;35483;50.828;3.228;2023-02-26T05:15:32;11.23;;;2.53;;
49578;SDS011;35483;50.828;3.228;2023-02-26T05:17:58;7.28;;;2.00;;
49578;SDS011;35483;50.828;3.228;2023-02-26T05:20:23;6.82;;;2.35;;
49578;SDS011;35483;50.828;3.228;2023-02-26T05:22:49;3.60;;;1.92;;
49578;SDS011;35483;50.828;3.228;2023-02-26T05:25:15;3.47;;;1.80;;
49578;SDS011;35483;50.828;3.228;2023-02-26T05:27:56;3.72;;;1.67;;
49578;SDS011;35483;50.828;3.228;2023-02-26T05:30:22;9.10;;;2.03;;
49578;SDS011;35483;50.828;3.228;2023-02-26T05:32:48;4.43;;;2.10;;
49578;SDS011;35483;50.828;3.228;2023-02-26T05:35:14;4.75;;;1.98;;
49578;SDS011;35483;50.828;3.228;2023-02-26T05:37:40;5.95;;;1.90;;
49578;SDS011;35483;50.828;3.228;2023-02-26T05:40:06;5.22;;;1.60;;
49578;SDS011;35483;50.828;3.228;2023-02-26T05:42:37;7.10;;;2.15;;
49578;SDS011;35483;50.828;3.228;2023-02-26T05:45:03;4.50;;;1.48;;
49578;SDS011;35483;50.828;3.228;2023-02-26T05:47:31;3.22;;;1.50;;
49578;SDS011;35483;50.828;3.228;2023-02-26T05:49:57;4.63;;;1.50;;
49578;SDS011;35483;50.828;3.228;2023-02-26T05:52:23;7.43;;;2.08;;
49578;SDS011;35483;50.828;3.228;2023-02-26T05:54:49;5.97;;;2.08;;
49578;SDS011;35483;50.828;3.228;2023-02-26T05:57:14;4.05;;;1.90;;
49578;SDS011;35483;50.828;3.228;2023-02-26T05:59:40;4.05;;;2.22;;
49578;SDS011;35483;50.828;3.228;2023-02-26T06:02:06;7.20;;;2.80;;
49578;SDS011;35483;50.828;3.228;2023-02-26T06:04:32;5.72;;;2.47;;
49578;SDS011;35483;50.828;3.228;2023-02-26T06:06:58;3.97;;;2.13;;
49578;SDS011;35483;50.828;3.228;2023-02-26T06:09:24;5.82;;;2.40;;
49578;SDS011;35483;50.828;3.228;2023-02-26T06:11:49;6.03;;;2.42;;
49578;SDS011;35483;50.828;3.228;2023-02-26T06:14:15;8.55;;;2.50;;
49578;SDS011;35483;50.828;3.228;2023-02-26T06:16:42;5.35;;;2.20;;
49578;SDS011;35483;50.828;3.228;2023-02-26T06:19:07;4.78;;;2.03;;
49578;SDS011;35483;50.828;3.228;2023-02-26T06:21:33;6.55;;;2.55;;
49578;SDS011;35483;50.828;3.228;2023-02-26T06:23:58;3.65;;;2.35;;
49578;SDS011;35483;50.828;3.228;2023-02-26T06:26:24;3.97;;;2.65;;
49578;SDS011;35483;50.828;3.228;2023-02-26T06:28:50;5.65;;;3.05;;
49578;SDS011;35483;50.828;3.228;2023-02-26T06:31:15;4.03;;;3.10;;
49578;SDS011;35483;50.828;3.228;2023-02-26T06:33:41;5.10;;;3.10;;
49578;SDS011;35483;50.828;3.228;2023-02-26T06:36:07;5.78;;;3.05;;
49578;SDS011;35483;50.828;3.228;2023-02-26T06:38:33;4.13;;;2.92;;
49578;SDS011;35483;50.828;3.228;2023-02-26T06:40:58;4.75;;;2.55;;
49578;SDS011;35483;50.828;3.228;2023-02-26T06:43:24;4.38;;;2.55;;
49578;SDS011;35483;50.828;3.228;2023-02-26T06:45:50;3.22;;;2.50;;
49578;SDS011;35483;50.828;3.228;2023-02-26T06:48:15;4.43;;;2.40;;
49578;SDS011;35483;50.828;3.228;2023-02-26T06:50:41;5.18;;;2.60;;
49578;SDS011;35483;50.828;3.228;2023-02-26T06:53:07;5.50;;;2.47;;
49578;SDS011;35483;50.828;3.228;2023-02-26T06:55:34;6.80;;;2.80;;
49578;SDS011;35483;50.828;3.228;2023-02-26T06:57:59;5.45;;;2.85;;
49578;SDS011;35483;50.828;3.228;2023-02-26T07:00:25;3.67;;;2.33;;
49578;SDS011;35483;50.828;3.228;2023-02-26T07:02:51;4.65;;;2.33;;
49578;SDS011;35483;50.828;3.228;2023-02-26T07:05:17;3.17;;;1.88;;
49578;SDS011;35483;50.828;3.228;2023-02-26T07:07:43;4.80;;;2.17;;
49578;SDS011;35483;50.828;3.228;2023-02-26T07:10:09;2.83;;;2.15;;
49578;SDS011;35483;50.828;3.228;2023-02-26T07:12:36;7.28;;;2.25;;
49578;SDS011;35483;50.828;3.228;2023-02-26T07:15:03;5.00;;;2.15;;
49578;SDS011;35483;50.828;3.228;2023-02-26T07:17:29;3.85;;;2.22;;
49578;SDS011;35483;50.828;3.228;2023-02-26T07:19:56;6.00;;;2.22;;
49578;SDS011;35483;50.828;3.228;2023-02-26T07:22:22;5.35;;;2.15;;
49578;SDS011;35483;50.828;3.228;2023-02-26T07:24:48;6.43;;;2.40;;
49578;SDS011;35483;50.828;3.228;2023-02-26T07:27:14;2.92;;;2.20;;
49578;SDS011;35483;50.828;3.228;2023-02-26T07:29:39;3.72;;;1.95;;
49578;SDS011;35483;50.828;3.228;2023-02-26T07:32:05;4.35;;;2.08;;
49578;SDS011;35483;50.828;3.228;2023-02-26T07:34:32;3.50;;;2.20;;
49578;SDS011;35483;50.828;3.228;2023-02-26T07:36:58;6.57;;;2.38;;
49578;SDS011;35483;50.828;3.228;2023-02-26T07:39:24;4.35;;;2.35;;
49578;SDS011;35483;50.828;3.228;2023-02-26T07:41:51;5.68;;;2.50;;
49578;SDS011;35483;50.828;3.228;2023-02-26T07:44:17;4.93;;;2.25;;
49578;SDS011;35483;50.828;3.228;2023-02-26T07:46:42;3.13;;;2.03;;
49578;SDS011;35483;50.828;3.228;2023-02-26T07:49:08;5.82;;;2.13;;
49578;SDS011;35483;50.828;3.228;2023-02-26T07:51:34;7.10;;;2.45;;
49578;SDS011;35483;50.828;3.228;2023-02-26T07:54:00;4.78;;;2.10;;
49578;SDS011;35483;50.828;3.228;2023-02-26T07:56:27;5.63;;;2.20;;
49578;SDS011;35483;50.828;3.228;2023-02-26T07:58:53;3.65;;;2.42;;
49578;SDS011;35483;50.828;3.228;2023-02-26T08:01:18;4.15;;;2.75;;
49578;SDS011;35483;50.828;3.228;2023-02-26T08:03:44;4.00;;;2.30;;
49578;SDS011;35483;50.828;3.228;2023-02-26T08:06:09;2.95;;;1.98;;
49578;SDS011;35483;50.828;3.228;2023-02-26T08:08:35;3.78;;;2.10;;
49578;SDS011;35483;50.828;3.228;2023-02-26T08:11:01;5.85;;;3.13;;
49578;SDS011;35483;50.828;3.228;2023-02-26T08:13:27;8.60;;;3.08;;
49578;SDS011;35483;50.828;3.228;2023-02-26T08:15:52;4.93;;;2.40;;
49578;SDS011;35483;50.828;3.228;2023-02-26T08:18:18;4.20;;;2.50;;
49578;SDS011;35483;50.828;3.228;2023-02-26T08:20:44;4.55;;;1.85;;
49578;SDS011;35483;50.828;3.228;2023-02-26T08:23:10;3.80;;;1.95;;
49578;SDS011;35483;50.828;3.228;2023-02-26T08:25:36;4.15;;;2.10;;
49578;SDS011;35483;50.828;3.228;2023-02-26T08:28:03;4.65;;;2.03;;
49578;SDS011;35483;50.828;3.228;2023-02-26T08:30:29;3.92;;;2.00;;
49578;SDS011;35483;50.828;3.228;2023-02-26T08:32:55;2.72;;;1.85;;
49578;SDS011;35483;50.828;3.228;2023-02-26T08:35:23;3.13;;;2.05;;
49578;SDS011;35483;50.828;3.228;2023-02-26T08:37:49;4.63;;;2.00;;
49578;SDS011;35483;50.828;3.228;2023-02-26T08:40:14;3.35;;;1.80;;
49578;SDS011;35483;50.828;3.228;2023-02-26T08:42:40;4.18;;;1.90;;
49578;SDS011;35483;50.828;3.228;2023-02-26T08:45:06;2.83;;;1.50;;
49578;SDS011;35483;50.828;3.228;2023-02-26T08:47:32;3.03;;;2.05;;
49578;SDS011;35483;50.828;3.228;2023-02-26T08:49:58;3.65;;;1.70;;
49578;SDS011;35483;50.828;3.228;2023-02-26T08:52:25;5.18;;;2.03;;
49578;SDS011;35483;50.828;3.228;2023-02-26T08:54:51;3.13;;;2.00;;
49578;SDS011;35483;50.828;3.228;2023-02-26T08:57:17;3.25;;;1.83;;
49578;SDS011;35483;50.828;3.228;2023-02-26T08:59:42;3.75;;;1.85;;
49578;SDS011;35483;50.828;3.228;2023-02-26T09:02:11;4.40;;;1.60;;
49578;SDS011;35483;50.828;3.228;2023-02-26T09:04:37;3.55;;;2.30;;
49578;SDS011;35483;50.828;3.228;2023-02-26T09:07:03;4.82;;;2.00;;
49578;SDS011;35483;50.828;3.228;2023-02-26T09:09:29;2.63;;;1.90;;
49578;SDS011;35483;50.828;3.228;2023-02-26T09:11:55;2.97;;;1.77;;
49578;SDS011;35483;50.828;3.228;2023-02-26T09:14:21;2.75;;;1.48;;
49578;SDS011;35483;50.828;3.228;2023-02-26T09:16:47;2.47;;;1.60;;
49578;SDS011;35483;50.828;3.228;2023-02-26T09:19:12;3.63;;;1.63;;
49578;SDS011;35483;50.828;3.228;2023-02-26T09:21:38;1.83;;;1.63;;
49578;SDS011;35483;50.828;3.228;2023-02-26T09:24:04;3.20;;;1.30;;
49578;SDS011;35483;50.828;3.228;2023-02-26T09:26:29;3.17;;;1.55;;
49578;SDS011;35483;50.828;3.228;2023-02-26T09:28:55;3.17;;;1.30;;
49578;SDS011;35483;50.828;3.228;2023-02-26T09:31:22;2.55;;;1.10;;
49578;SDS011;35483;50.828;3.228;2023-02-26T09:33:48;1.45;;;1.35;;
49578;SDS011;35483;50.828;3.228;2023-02-26T09:36:14;3.72;;;1.70;;
49578;SDS011;35483;50.828;3.228;2023-02-26T09:38:40;2.53;;;1.75;;
49578;SDS011;35483;50.828;3.228;2023-02-26T09:41:08;2.28;;;1.23;;
49578;SDS011;35483;50.828;3.228;2023-02-26T09:46:51;1.40;;;0.90;;
49578;SDS011;35483;50.828;3.228;2023-02-26T09:52:23;1.08;;;0.70;;
49578;SDS011;35483;50.828;3.228;2023-02-26T09:54:55;2.13;;;0.80;;
49578;SDS011;35483;50.828;3.228;2023-02-26T09:57:32;1.30;;;0.80;;
49578;SDS011;35483;50.828;3.228;2023-02-26T10:00:00;2.50;;;1.23;;
49578;SDS011;35483;50.828;3.228;2023-02-26T10:05:23;1.23;;;1.00;;
49578;SDS011;35483;50.828;3.228;2023-02-26T10:08:01;3.00;;;0.90;;
49578;SDS011;35483;50.828;3.228;2023-02-26T10:13:30;2.83;;;1.17;;
49578;SDS011;35483;50.828;3.228;2023-02-26T10:16:21;3.13;;;1.20;;
49578;SDS011;35483;50.828;3.228;2023-02-26T10:18:52;0.98;;;0.93;;
49578;SDS011;35483;50.828;3.228;2023-02-26T10:21:39;2.33;;;1.15;;
49578;SDS011;35483;50.828;3.228;2023-02-26T10:27:29;2.70;;;1.20;;
49578;SDS011;35483;50.828;3.228;2023-02-26T10:30:10;1.67;;;1.17;;
49578;SDS011;35483;50.828;3.228;2023-02-26T10:35:36;2.47;;;1.20;;
49578;SDS011;35483;50.828;3.228;2023-02-26T10:38:12;1.35;;;1.05;;
49578;SDS011;35483;50.828;3.228;2023-02-26T10:43:58;2.80;;;1.00;;
49578;SDS011;35483;50.828;3.228;2023-02-26T10:47:04;3.13;;;1.00;;
49578;SDS011;35483;50.828;3.228;2023-02-26T10:49:46;2.38;;;1.15;;
49578;SDS011;35483;50.828;3.228;2023-02-26T10:52:25;1.25;;;1.00;;
49578;SDS011;35483;50.828;3.228;2023-02-26T10:55:02;1.77;;;0.98;;
49578;SDS011;35483;50.828;3.228;2023-02-26T10:57:36;1.83;;;1.08;;
49578;SDS011;35483;50.828;3.228;2023-02-26T11:00:14;1.80;;;0.88;;
49578;SDS011;35483;50.828;3.228;2023-02-26T11:02:45;1.92;;;1.02;;
49578;SDS011;35483;50.828;3.228;2023-02-26T11:05:23;1.48;;;0.90;;
49578;SDS011;35483;50.828;3.228;2023-02-26T11:10:46;1.90;;;0.90;;
49578;SDS011;35483;50.828;3.228;2023-02-26T11:13:16;2.17;;;1.23;;
49578;SDS011;35483;50.828;3.228;2023-02-26T11:15:45;1.88;;;1.10;;
49578;SDS011;35483;50.828;3.228;2023-02-26T11:18:16;1.42;;;1.00;;
49578;SDS011;35483;50.828;3.228;2023-02-26T11:20:48;1.77;;;1.05;;
49578;SDS011;35483;50.828;3.228;2023-02-26T11:23:19;2.35;;;1.00;;
49578;SDS011;35483;50.828;3.228;2023-02-26T11:25:57;2.55;;;1.40;;
49578;SDS011;35483;50.828;3.228;2023-02-26T11:28:31;1.13;;;0.95;;
49578;SDS011;35483;50.828;3.228;2023-02-26T11:31:10;2.50;;;1.17;;
49578;SDS011;35483;50.828;3.228;2023-02-26T11:36:17;1.63;;;0.90;;
49578;SDS011;35483;50.828;3.228;2023-02-26T11:38:44;1.50;;;1.00;;
49578;SDS011;35483;50.828;3.228;2023-02-26T11:41:16;1.65;;;0.90;;
49578;SDS011;35483;50.828;3.228;2023-02-26T11:43:45;1.45;;;0.95;;
49578;SDS011;35483;50.828;3.228;2023-02-26T11:46:15;2.67;;;0.88;;
49578;SDS011;35483;50.828;3.228;2023-02-26T11:48:45;1.45;;;1.00;;
49578;SDS011;35483;50.828;3.228;2023-02-26T11:51:14;1.38;;;1.27;;
49578;SDS011;35483;50.828;3.228;2023-02-26T11:53:58;3.40;;;1.08;;
49578;SDS011;35483;50.828;3.228;2023-02-26T11:56:41;1.30;;;0.93;;
49578;SDS011;35483;50.828;3.228;2023-02-26T11:59:30;1.67;;;0.90;;
49578;SDS011;35483;50.828;3.228;2023-02-26T12:02:00;1.40;;;0.95;;
49578;SDS011;35483;50.828;3.228;2023-02-26T12:04:41;1.90;;;0.90;;
49578;SDS011;35483;50.828;3.228;2023-02-26T12:07:11;1.60;;;1.20;;
49578;SDS011;35483;50.828;3.228;2023-02-26T12:09:40;2.58;;;1.25;;
49578;SDS011;35483;50.828;3.228;2023-02-26T12:20:50;2.28;;;1.58;;
49578;SDS011;35483;50.828;3.228;2023-02-26T12:26:32;1.85;;;1.20;;
49578;SDS011;35483;50.828;3.228;2023-02-26T12:43:24;1.63;;;0.95;;
49578;SDS011;35483;50.828;3.228;2023-02-26T12:46:30;2.90;;;1.38;;
49578;SDS011;35483;50.828;3.228;2023-02-26T12:49:14;1.65;;;1.00;;
49578;SDS011;35483;50.828;3.228;2023-02-26T13:23:16;2.22;;;1.00;;
49578;SDS011;35483;50.828;3.228;2023-02-26T13:25:42;2.58;;;1.20;;
49578;SDS011;35483;50.828;3.228;2023-02-26T13:32:07;2.10;;;1.20;;
49578;SDS011;35483;50.828;3.228;2023-02-26T13:34:17;1.77;;;0.95;;
49578;SDS011;35483;50.828;3.228;2023-02-26T13:37:04;1.48;;;1.05;;
49578;SDS011;35483;50.828;3.228;2023-02-26T13:42:42;2.95;;;1.42;;
49578;SDS011;35483;50.828;3.228;2023-02-26T13:48:06;2.28;;;1.40;;
49578;SDS011;35483;50.828;3.228;2023-02-26T13:55:50;1.75;;;1.20;;
49578;SDS011;35483;50.828;3.228;2023-02-26T13:58:28;1.80;;;1.40;;
49578;SDS011;35483;50.828;3.228;2023-02-26T14:01:17;2.55;;;1.45;;
49578;SDS011;35483;50.828;3.228;2023-02-26T14:04:08;2.53;;;1.20;;
49578;SDS011;35483;50.828;3.228;2023-02-26T14:06:51;2.45;;;1.58;;
49578;SDS011;35483;50.828;3.228;2023-02-26T14:11:58;1.63;;;1.27;;
49578;SDS011;35483;50.828;3.228;2023-02-26T14:17:48;3.80;;;1.80;;
49578;SDS011;35483;50.828;3.228;2023-02-26T14:23:09;1.40;;;1.30;;
49578;SDS011;35483;50.828;3.228;2023-02-26T14:25:46;3.13;;;1.33;;
49578;SDS011;35483;50.828;3.228;2023-02-26T14:31:10;1.75;;;1.55;;
49578;SDS011;35483;50.828;3.228;2023-02-26T14:33:47;2.85;;;1.48;;
49578;SDS011;35483;50.828;3.228;2023-02-26T14:36:57;2.90;;;1.20;;
49578;SDS011;35483;50.828;3.228;2023-02-26T14:39:29;2.40;;;1.42;;
49578;SDS011;35483;50.828;3.228;2023-02-26T14:42:04;2.03;;;1.00;;
49578;SDS011;35483;50.828;3.228;2023-02-26T14:44:46;1.50;;;1.40;;
49578;SDS011;35483;50.828;3.228;2023-02-26T14:49:44;3.00;;;1.10;;
49578;SDS011;35483;50.828;3.228;2023-02-26T14:52:22;1.88;;;1.30;;
49578;SDS011;35483;50.828;3.228;2023-02-26T14:55:16;2.40;;;1.23;;
49578;SDS011;35483;50.828;3.228;2023-02-26T14:59:03;2.97;;;1.20;;
49578;SDS011;35483;50.828;3.228;2023-02-26T15:06:44;1.77;;;1.20;;
49578;SDS011;35483;50.828;3.228;2023-02-26T15:17:40;1.58;;;1.15;;
49578;SDS011;35483;50.828;3.228;2023-02-26T15:28:33;2.15;;;1.20;;
49578;SDS011;35483;50.828;3.228;2023-02-26T15:31:02;2.78;;;1.60;;
49578;SDS011;35483;50.828;3.228;2023-02-26T15:33:31;3.53;;;1.55;;
49578;SDS011;35483;50.828;3.228;2023-02-26T15:35:58;1.55;;;1.40;;
49578;SDS011;35483;50.828;3.228;2023-02-26T15:38:26;3.10;;;1.63;;
49578;SDS011;35483;50.828;3.228;2023-02-26T15:40:53;2.17;;;1.58;;
49578;SDS011;35483;50.828;3.228;2023-02-26T15:43:26;3.13;;;1.40;;
49578;SDS011;35483;50.828;3.228;2023-02-26T15:45:55;1.92;;;1.23;;
49578;SDS011;35483;50.828;3.228;2023-02-26T15:48:26;1.33;;;1.05;;
49578;SDS011;35483;50.828;3.228;2023-02-26T15:51:01;1.50;;;1.20;;
49578;SDS011;35483;50.828;3.228;2023-02-26T15:53:40;3.50;;;1.38;;
49578;SDS011;35483;50.828;3.228;2023-02-26T15:59:00;2.10;;;1.00;;
49578;SDS011;35483;50.828;3.228;2023-02-26T16:04:11;2.30;;;1.00;;
49578;SDS011;35483;50.828;3.228;2023-02-26T16:06:44;2.90;;;1.33;;
49578;SDS011;35483;50.828;3.228;2023-02-26T16:09:17;2.00;;;1.55;;
49578;SDS011;35483;50.828;3.228;2023-02-26T16:11:53;2.08;;;0.95;;
49578;SDS011;35483;50.828;3.228;2023-02-26T16:14:22;2.22;;;1.10;;
49578;SDS011;35483;50.828;3.228;2023-02-26T16:16:53;1.52;;;1.00;;
49578;SDS011;35483;50.828;3.228;2023-02-26T16:19:24;2.25;;;1.10;;
49578;SDS011;35483;50.828;3.228;2023-02-26T16:21:54;1.77;;;1.20;;
49578;SDS011;35483;50.828;3.228;2023-02-26T16:24:21;2.00;;;1.50;;
49578;SDS011;35483;50.828;3.228;2023-02-26T16:26:54;1.35;;;1.25;;
49578;SDS011;35483;50.828;3.228;2023-02-26T16:29:27;2.95;;;1.40;;
49578;SDS011;35483;50.828;3.228;2023-02-26T16:31:55;1.75;;;1.23;;
49578;SDS011;35483;50.828;3.228;2023-02-26T16:34:41;2.28;;;1.15;;
49578;SDS011;35483;50.828;3.228;2023-02-26T16:37:17;3.22;;;1.42;;
49578;SDS011;35483;50.828;3.228;2023-02-26T16:39:51;3.60;;;1.40;;
49578;SDS011;35483;50.828;3.228;2023-02-26T16:48:01;2.28;;;1.50;;
49578;SDS011;35483;50.828;3.228;2023-02-26T16:50:30;2.65;;;1.40;;
49578;SDS011;35483;50.828;3.228;2023-02-26T16:53:15;2.85;;;1.40;;
49578;SDS011;35483;50.828;3.228;2023-02-26T16:55:49;2.60;;;1.27;;
49578;SDS011;35483;50.828;3.228;2023-02-26T16:58:17;3.42;;;1.40;;
49578;SDS011;35483;50.828;3.228;2023-02-26T17:00:54;2.65;;;1.30;;
49578;SDS011;35483;50.828;3.228;2023-02-26T17:03:26;1.60;;;1.17;;
49578;SDS011;35483;50.828;3.228;2023-02-26T17:06:13;2.33;;;1.30;;
49578;SDS011;35483;50.828;3.228;2023-02-26T17:08:52;3.13;;;1.50;;
49578;SDS011;35483;50.828;3.228;2023-02-26T17:11:28;2.42;;;1.60;;
49578;SDS011;35483;50.828;3.228;2023-02-26T17:14:03;1.67;;;1.48;;
49578;SDS011;35483;50.828;3.228;2023-02-26T17:16:43;2.90;;;1.67;;
49578;SDS011;35483;50.828;3.228;2023-02-26T17:19:09;2.40;;;1.38;;
49578;SDS011;35483;50.828;3.228;2023-02-26T17:21:40;2.53;;;1.80;;
49578;SDS011;35483;50.828;3.228;2023-02-26T17:24:14;7.30;;;4.05;;
49578;SDS011;35483;50.828;3.228;2023-02-26T17:26:43;6.88;;;4.18;;
49578;SDS011;35483;50.828;3.228;2023-02-26T17:29:20;6.57;;;3.50;;
49578;SDS011;35483;50.828;3.228;2023-02-26T17:34:27;4.38;;;2.95;;
49578;SDS011;35483;50.828;3.228;2023-02-26T17:36:56;3.28;;;2.10;;
49578;SDS011;35483;50.828;3.228;2023-02-26T17:39:23;3.80;;;2.90;;
49578;SDS011;35483;50.828;3.228;2023-02-26T17:41:49;3.88;;;2.50;;
49578;SDS011;35483;50.828;3.228;2023-02-26T17:44:15;5.13;;;3.22;;
49578;SDS011;35483;50.828;3.228;2023-02-26T17:46:41;4.38;;;3.05;;
49578;SDS011;35483;50.828;3.228;2023-02-26T17:49:07;4.70;;;2.47;;
49578;SDS011;35483;50.828;3.228;2023-02-26T17:51:35;3.72;;;2.08;;
49578;SDS011;35483;50.828;3.228;2023-02-26T17:54:01;4.47;;;2.10;;
49578;SDS011;35483;50.828;3.228;2023-02-26T17:56:28;3.50;;;2.13;;
49578;SDS011;35483;50.828;3.228;2023-02-26T17:58:55;2.83;;;2.00;;
49578;SDS011;35483;50.828;3.228;2023-02-26T18:01:22;3.15;;;1.73;;
49578;SDS011;35483;50.828;3.228;2023-02-26T18:03:50;3.25;;;2.20;;
49578;SDS011;35483;50.828;3.228;2023-02-26T18:06:18;3.10;;;1.63;;
49578;SDS011;35483;50.828;3.228;2023-02-26T18:08:45;3.58;;;1.92;;
49578;SDS011;35483;50.828;3.228;2023-02-26T18:11:14;4.00;;;2.13;;
49578;SDS011;35483;50.828;3.228;2023-02-26T18:13:42;3.28;;;1.80;;
49578;SDS011;35483;50.828;3.228;2023-02-26T18:18:44;4.40;;;2.60;;
49578;SDS011;35483;50.828;3.228;2023-02-26T18:21:11;4.43;;;3.15;;
49578;SDS011;35483;50.828;3.228;2023-02-26T18:23:40;2.83;;;2.35;;
49578;SDS011;35483;50.828;3.228;2023-02-26T18:26:06;3.15;;;2.08;;
49578;SDS011;35483;50.828;3.228;2023-02-26T18:28:32;4.88;;;2.40;;
49578;SDS011;35483;50.828;3.228;2023-02-26T18:30:58;5.78;;;2.90;;
49578;SDS011;35483;50.828;3.228;2023-02-26T18:33:26;5.32;;;2.58;;
49578;SDS011;35483;50.828;3.228;2023-02-26T18:35:54;4.28;;;2.25;;
49578;SDS011;35483;50.828;3.228;2023-02-26T18:38:27;5.30;;;2.70;;